Time;durP1;ratioP1;P1;durP2;ratioP2;P2;SDS_P1;SDS_P2;PMS_P1;PMS_P2;Temp;Humidity;BMP_temperature;BMP_pressure;BME280_temperature;BME280_humidity;BME280_pressure;Samples;Min_cycle;Max_cycle;Signal;HPM_P1;HPM_P2
2021/12/23 00:01:29;;;;;;;;;;;-1.30;99.90;;;;;;5111776;27;19926;-72
2021/12/23 00:03:55;;;;;;;;;;;-1.30;99.90;;;;;;5111935;27;19923;-72
2021/12/23 00:06:20;;;;;;;;;;;-1.30;99.90;;;;;;5111033;27;20281;-72
2021/12/23 00:08:46;;;;;;;;;;;-1.30;99.90;;;;;;5111158;27;19915;-72
2021/12/23 00:11:11;;;;;;;;;;;-1.20;99.90;;;;;;5095215;27;19960;-72
2021/12/23 00:13:37;;;;;;;;;;;-1.20;99.90;;;;;;5112468;27;20023;-72
2021/12/23 00:16:06;;;;;;;;;;;-1.20;99.90;;;;;;5112680;27;20358;-72
2021/12/23 00:23:53;;;;;;;;;;;-1.20;99.90;;;;;;5111467;27;19951;-72
2021/12/23 00:26:18;;;;;;;;;;;-1.20;99.90;;;;;;5112312;27;19915;-72
2021/12/23 00:28:44;;;;;;;;;;;-1.10;99.90;;;;;;5112036;27;20280;-72
2021/12/23 00:31:09;;;;;;;;;;;-1.10;99.90;;;;;;5110667;27;19919;-72
2021/12/23 00:33:36;;;;;;;;;;;-1.10;99.90;;;;;;5112147;27;19973;-72
2021/12/23 00:36:04;;;;;;;;;;;-1.10;99.90;;;;;;5111723;27;20259;-72
2021/12/23 00:38:33;;;;;;;;;;;-1.10;99.90;;;;;;5112096;27;19927;-72
2021/12/23 00:41:02;;;;;;;;;;;-1.10;99.90;;;;;;5094966;27;20304;-72
2021/12/23 00:43:28;;;;;;;;;;;-1.10;99.90;;;;;;5112495;27;19915;-72
2021/12/23 00:45:53;;;;;;;;;;;-1.00;99.90;;;;;;5112266;27;19919;-73
2021/12/23 00:48:19;;;;;;;;;;;-1.00;99.90;;;;;;5110357;27;19980;-72
2021/12/23 00:50:46;;;;;;;;;;;-1.00;99.90;;;;;;5112315;27;19930;-72
2021/12/23 00:53:16;;;;;;;;;;;-1.00;99.90;;;;;;5111556;27;19965;-72
2021/12/23 00:55:41;;;;;;;;;;;-1.00;99.90;;;;;;5109033;27;19960;-72
2021/12/23 00:58:07;;;;;;;;;;;-1.00;99.90;;;;;;5110004;27;19923;-72
2021/12/23 01:00:32;;;;;;;;;;;-1.00;99.90;;;;;;5110099;27;19965;-73
2021/12/23 01:02:59;;;;;;;;;;;-1.00;99.90;;;;;;5112387;27;19915;-73
2021/12/23 01:05:26;;;;;;;;;;;-0.90;99.90;;;;;;5112869;27;20014;-72
2021/12/23 01:07:52;;;;;;;;;;;-0.90;99.90;;;;;;5110565;27;19923;-73
2021/12/23 01:10:18;;;;;;;;;;;-0.90;99.90;;;;;;5090503;27;20386;-73
2021/12/23 01:12:48;;;;;;;;;;;-0.90;99.90;;;;;;5110102;27;19915;-72
2021/12/23 01:15:38;;;;;;;;;;;-0.90;99.90;;;;;;5112030;27;19919;-73
2021/12/23 01:18:24;;;;;;;;;;;-1.00;99.90;;;;;;5107073;28;20193;-73
2021/12/23 01:21:02;;;;;;;;;;;-0.90;99.90;;;;;;5111871;27;19968;-73
2021/12/23 01:23:28;;;;;;;;;;;-0.90;99.90;;;;;;5109371;27;19953;-73
2021/12/23 01:25:53;;;;;;;;;;;-0.90;99.90;;;;;;5091486;28;20358;-73
2021/12/23 01:28:19;;;;;;;;;;;-1.00;99.90;;;;;;5110724;28;19945;-73
2021/12/23 01:30:44;;;;;;;;;;;-0.90;99.90;;;;;;5108443;28;19919;-72
2021/12/23 01:33:10;;;;;;;;;;;-1.00;99.90;;;;;;5111280;28;20430;-73
2021/12/23 01:35:36;;;;;;;;;;;-0.90;99.90;;;;;;5098441;28;21421;-73
2021/12/23 01:38:02;;;;;;;;;;;-0.90;99.90;;;;;;5112876;28;19976;-73
2021/12/23 01:40:28;;;;;;;;;;;-0.90;99.90;;;;;;5108311;27;20356;-73
2021/12/23 01:42:54;;;;;;;;;;;-0.90;99.90;;;;;;5110793;28;19919;-73
2021/12/23 01:45:22;;;;;;;;;;;-0.90;99.90;;;;;;5111966;28;19956;-72
2021/12/23 01:47:48;;;;;;;;;;;-0.90;99.90;;;;;;5109653;28;19915;-72
2021/12/23 01:50:15;;;;;;;;;;;-0.90;99.90;;;;;;5111247;28;19915;-72
2021/12/23 01:52:41;;;;;;;;;;;-0.90;99.90;;;;;;5108262;27;19972;-73
2021/12/23 01:55:08;;;;;;;;;;;-1.00;99.90;;;;;;5093985;28;19923;-72
2021/12/23 01:57:33;;;;;;;;;;;-1.00;99.90;;;;;;5110512;28;19935;-73
2021/12/23 01:59:59;;;;;;;;;;;-0.90;99.90;;;;;;5108070;28;20027;-73
2021/12/23 02:02:25;;;;;;;;;;;-0.90;99.90;;;;;;5110962;28;19923;-73
2021/12/23 02:04:51;;;;;;;;;;;-1.00;99.90;;;;;;5110502;28;19919;-72
2021/12/23 02:07:17;;;;;;;;;;;-1.00;99.90;;;;;;5111089;28;20319;-72
2021/12/23 02:09:43;;;;;;;;;;;-0.90;99.90;;;;;;5110466;28;19919;-72
2021/12/23 02:12:09;;;;;;;;;;;-0.90;99.90;;;;;;5093525;28;19915;-72
2021/12/23 02:14:34;;;;;;;;;;;-0.90;99.90;;;;;;5108268;28;19923;-72
2021/12/23 02:16:59;;;;;;;;;;;-0.90;99.90;;;;;;5107895;28;19981;-72
2021/12/23 02:19:26;;;;;;;;;;;-0.90;99.90;;;;;;5108877;28;19931;-72
2021/12/23 02:21:52;;;;;;;;;;;-0.90;99.90;;;;;;5109918;28;19968;-72
2021/12/23 02:24:17;;;;;;;;;;;-0.90;99.90;;;;;;5110839;28;19919;-73
2021/12/23 02:26:43;;;;;;;;;;;-0.90;99.90;;;;;;5110804;28;19922;-73
2021/12/23 02:29:09;;;;;;;;;;;-0.90;99.90;;;;;;5107591;28;20370;-73
2021/12/23 02:31:35;;;;;;;;;;;-0.90;99.90;;;;;;5111350;27;19965;-73
2021/12/23 02:34:01;;;;;;;;;;;-0.90;99.90;;;;;;5113214;27;19923;-73
2021/12/23 02:36:26;;;;;;;;;;;-0.90;99.90;;;;;;5114777;27;19922;-73
2021/12/23 02:38:54;;;;;;;;;;;-0.90;99.90;;;;;;5113116;27;20517;-73
2021/12/23 02:41:20;;;;;;;;;;;-0.90;99.90;;;;;;5110724;27;20328;-74
2021/12/23 02:43:45;;;;;;;;;;;-0.90;99.90;;;;;;5110944;27;19915;-74
2021/12/23 02:46:11;;;;;;;;;;;-0.90;99.90;;;;;;5113318;27;20400;-74
2021/12/23 02:48:37;;;;;;;;;;;-0.90;99.90;;;;;;5107314;27;19916;-74
2021/12/23 02:51:08;;;;;;;;;;;-0.90;99.90;;;;;;5115079;27;20301;-74
2021/12/23 02:53:33;;;;;;;;;;;-0.90;99.90;;;;;;5093127;27;20630;-73
2021/12/23 02:56:01;;;;;;;;;;;-0.90;99.90;;;;;;5109100;27;19915;-73
2021/12/23 02:58:26;;;;;;;;;;;-0.90;99.90;;;;;;5114139;27;19919;-72
2021/12/23 03:00:52;;;;;;;;;;;-0.90;99.90;;;;;;5111471;27;19964;-72
2021/12/23 03:03:18;;;;;;;;;;;-0.90;99.90;;;;;;5114416;27;19965;-72
2021/12/23 03:05:48;;;;;;;;;;;-0.90;99.90;;;;;;5112831;27;19950;-72
2021/12/23 03:08:13;;;;;;;;;;;-0.90;99.90;;;;;;5108668;27;19919;-73
2021/12/23 03:10:38;;;;;;;;;;;-0.90;99.90;;;;;;5113273;27;19923;-73
2021/12/23 03:13:04;;;;;;;;;;;-0.90;99.90;;;;;;5097154;27;20006;-72
2021/12/23 03:15:29;;;;;;;;;;;-0.90;99.90;;;;;;5113028;27;20378;-72
2021/12/23 03:17:55;;;;;;;;;;;-0.90;99.90;;;;;;5114452;27;20393;-72
2021/12/23 03:20:20;;;;;;;;;;;-0.90;99.90;;;;;;5112646;27;19957;-72
2021/12/23 03:22:46;;;;;;;;;;;-0.90;99.90;;;;;;5113823;27;19915;-72
2021/12/23 03:25:11;;;;;;;;;;;-0.90;99.90;;;;;;5113205;27;19916;-73
2021/12/23 03:27:37;;;;;;;;;;;-0.80;99.90;;;;;;5114270;27;19940;-72
2021/12/23 03:30:04;;;;;;;;;;;-0.80;99.90;;;;;;5111632;27;19927;-72
2021/12/23 03:32:30;;;;;;;;;;;-0.80;99.90;;;;;;5113976;27;19920;-72
2021/12/23 03:34:55;;;;;;;;;;;-0.80;99.90;;;;;;5095881;27;19923;-72
2021/12/23 03:37:21;;;;;;;;;;;-0.80;99.90;;;;;;5096226;27;19920;-72
2021/12/23 03:39:50;;;;;;;;;;;-0.80;99.90;;;;;;5112582;27;19940;-73
2021/12/23 03:42:16;;;;;;;;;;;-0.80;99.90;;;;;;5113339;27;19922;-72
2021/12/23 03:44:42;;;;;;;;;;;-0.80;99.90;;;;;;5113236;27;19915;-73
2021/12/23 03:47:07;;;;;;;;;;;-0.80;99.90;;;;;;5094867;27;20289;-73
2021/12/23 03:49:33;;;;;;;;;;;-0.80;99.90;;;;;;5113218;27;19936;-73
2021/12/23 03:51:58;;;;;;;;;;;-0.70;99.90;;;;;;5112750;27;20006;-73
2021/12/23 03:54:24;;;;;;;;;;;-0.70;99.90;;;;;;5112877;27;19923;-73
2021/12/23 03:56:49;;;;;;;;;;;-0.70;99.90;;;;;;5112775;27;19927;-73
2021/12/23 03:59:15;;;;;;;;;;;-0.70;99.90;;;;;;5112584;27;20009;-72
2021/12/23 04:01:41;;;;;;;;;;;-0.70;99.90;;;;;;5111989;27;19919;-73
2021/12/23 04:04:06;;;;;;;;;;;-0.70;99.90;;;;;;5112002;27;19915;-72
2021/12/23 04:06:31;;;;;;;;;;;-0.70;99.90;;;;;;5095705;27;19922;-73
2021/12/23 04:08:57;;;;;;;;;;;-0.70;99.90;;;;;;5107303;27;19915;-73
2021/12/23 04:11:22;;;;;;;;;;;-0.70;99.90;;;;;;5096067;27;19916;-72
2021/12/23 04:13:48;;;;;;;;;;;-0.70;99.90;;;;;;5114091;27;19972;-73
2021/12/23 04:16:14;;;;;;;;;;;-0.60;99.90;;;;;;5111422;27;19923;-73
2021/12/23 04:18:39;;;;;;;;;;;-0.70;99.90;;;;;;5091209;27;20129;-73
2021/12/23 04:21:05;;;;;;;;;;;-0.60;99.90;;;;;;5113415;27;19927;-73
2021/12/23 04:23:31;;;;;;;;;;;-0.60;99.90;;;;;;5110801;27;19926;-73
2021/12/23 04:25:57;;;;;;;;;;;-0.60;99.90;;;;;;5095511;27;20403;-74
2021/12/23 04:28:24;;;;;;;;;;;-0.60;99.90;;;;;;5113800;27;19970;-74
2021/12/23 04:30:49;;;;;;;;;;;-0.60;99.90;;;;;;5112279;27;19936;-74
2021/12/23 04:33:16;;;;;;;;;;;-0.60;99.90;;;;;;5113203;27;19915;-74
2021/12/23 04:35:41;;;;;;;;;;;-0.60;99.90;;;;;;5113637;27;19923;-74
2021/12/23 04:38:07;;;;;;;;;;;-0.60;99.90;;;;;;5113196;27;19938;-74
2021/12/23 04:40:34;;;;;;;;;;;-0.60;99.90;;;;;;5105794;27;19916;-74
2021/12/23 04:43:01;;;;;;;;;;;-0.60;99.90;;;;;;5111051;27;20348;-73
2021/12/23 04:45:26;;;;;;;;;;;-0.60;99.90;;;;;;5112573;27;19915;-73
2021/12/23 04:47:52;;;;;;;;;;;-0.50;99.90;;;;;;5112627;27;19922;-73
2021/12/23 04:50:18;;;;;;;;;;;-0.60;99.90;;;;;;5112059;27;20365;-73
2021/12/23 04:52:43;;;;;;;;;;;-0.50;99.90;;;;;;5113004;27;20360;-73
2021/12/23 04:55:10;;;;;;;;;;;-0.50;99.90;;;;;;5109300;27;19915;-73
2021/12/23 04:57:35;;;;;;;;;;;-0.50;99.90;;;;;;5113039;28;19959;-73
2021/12/23 05:00:01;;;;;;;;;;;-0.50;99.90;;;;;;5109797;27;20335;-74
2021/12/23 05:02:26;;;;;;;;;;;-0.50;99.90;;;;;;5111461;27;20352;-73
2021/12/23 05:04:52;;;;;;;;;;;-0.50;99.90;;;;;;5112717;27;19923;-73
2021/12/23 05:07:18;;;;;;;;;;;-0.50;99.90;;;;;;5112311;27;20022;-73
2021/12/23 05:09:43;;;;;;;;;;;-0.50;99.90;;;;;;5110387;27;19915;-73
2021/12/23 05:12:09;;;;;;;;;;;-0.40;99.90;;;;;;5112017;27;19968;-73
2021/12/23 05:14:34;;;;;;;;;;;-0.40;99.90;;;;;;5094954;27;19915;-73
2021/12/23 05:17:00;;;;;;;;;;;-0.40;99.90;;;;;;5111365;28;19926;-73
2021/12/23 05:19:27;;;;;;;;;;;-0.50;99.90;;;;;;5112273;27;19938;-73
2021/12/23 05:21:52;;;;;;;;;;;-0.40;99.90;;;;;;5111855;28;20010;-73
2021/12/23 05:24:18;;;;;;;;;;;-0.40;99.90;;;;;;5110539;27;20346;-73
2021/12/23 05:26:43;;;;;;;;;;;-0.40;99.90;;;;;;5111492;28;20323;-73
2021/12/23 05:29:11;;;;;;;;;;;-0.40;99.90;;;;;;5111623;28;20218;-73
2021/12/23 05:31:36;;;;;;;;;;;-0.40;99.90;;;;;;5109248;27;19992;-73
2021/12/23 05:34:01;;;;;;;;;;;-0.40;99.90;;;;;;5112213;28;19919;-72
2021/12/23 05:36:27;;;;;;;;;;;-0.40;99.90;;;;;;5095279;28;20022;-73
2021/12/23 05:38:53;;;;;;;;;;;-0.40;99.90;;;;;;5111922;28;20408;-73
2021/12/23 05:41:19;;;;;;;;;;;-0.40;99.90;;;;;;5110720;28;19955;-73
2021/12/23 05:43:44;;;;;;;;;;;-0.40;99.90;;;;;;5110272;28;20349;-72
2021/12/23 05:46:09;;;;;;;;;;;-0.40;99.90;;;;;;5111829;28;20381;-72
2021/12/23 05:48:35;;;;;;;;;;;-0.40;99.90;;;;;;5110629;28;19915;-72
2021/12/23 05:51:00;;;;;;;;;;;-0.40;99.90;;;;;;5111853;28;19922;-71
2021/12/23 05:53:26;;;;;;;;;;;-0.40;99.90;;;;;;5108920;28;20274;-71
2021/12/23 05:55:53;;;;;;;;;;;-0.40;99.90;;;;;;5112036;28;19981;-72
2021/12/23 05:58:18;;;;;;;;;;;-0.40;99.90;;;;;;5110600;27;19926;-71
2021/12/23 06:00:44;;;;;;;;;;;-0.40;99.90;;;;;;5109150;28;20246;-71
2021/12/23 06:03:09;;;;;;;;;;;-0.40;99.90;;;;;;5109525;28;20033;-72
2021/12/23 06:05:35;;;;;;;;;;;-0.40;99.90;;;;;;5111595;27;19919;-72
2021/12/23 06:08:00;;;;;;;;;;;-0.40;99.90;;;;;;5115295;27;19971;-72
2021/12/23 06:10:26;;;;;;;;;;;-0.40;99.90;;;;;;5115092;27;19975;-71
2021/12/23 06:12:51;;;;;;;;;;;-0.40;99.90;;;;;;5116570;27;19915;-72
2021/12/23 06:15:17;;;;;;;;;;;-0.40;99.90;;;;;;5113037;27;19919;-72
2021/12/23 06:17:42;;;;;;;;;;;-0.40;99.90;;;;;;5116228;27;19920;-72
2021/12/23 06:20:09;;;;;;;;;;;-0.30;99.90;;;;;;5114088;27;20254;-71
2021/12/23 06:22:36;;;;;;;;;;;-0.40;99.90;;;;;;5116190;27;19925;-71
2021/12/23 06:25:03;;;;;;;;;;;-0.30;99.90;;;;;;5110979;27;19916;-72
2021/12/23 06:27:28;;;;;;;;;;;-0.30;99.90;;;;;;5114338;27;19923;-71
2021/12/23 06:29:54;;;;;;;;;;;-0.40;99.90;;;;;;5114054;27;19915;-71
2021/12/23 06:32:19;;;;;;;;;;;-0.40;99.90;;;;;;5113814;27;19919;-72
2021/12/23 06:34:45;;;;;;;;;;;-0.40;99.90;;;;;;5115012;27;19922;-72
2021/12/23 06:37:10;;;;;;;;;;;-0.30;99.90;;;;;;5115862;27;20344;-72
2021/12/23 06:39:36;;;;;;;;;;;-0.30;99.90;;;;;;5115809;27;19922;-72
2021/12/23 06:42:02;;;;;;;;;;;-0.30;99.90;;;;;;5114252;27;20326;-72
2021/12/23 06:44:28;;;;;;;;;;;-0.30;99.90;;;;;;5116020;27;19915;-73
2021/12/23 06:46:53;;;;;;;;;;;-0.30;99.90;;;;;;5115936;27;19972;-72
2021/12/23 06:49:19;;;;;;;;;;;-0.30;99.90;;;;;;5115158;27;19940;-72
2021/12/23 06:51:45;;;;;;;;;;;-0.30;99.90;;;;;;5111907;27;19923;-72
2021/12/23 06:54:13;;;;;;;;;;;-0.30;99.90;;;;;;5114802;27;20002;-73
2021/12/23 06:56:39;;;;;;;;;;;-0.20;99.90;;;;;;5115214;27;19915;-72
2021/12/23 06:59:05;;;;;;;;;;;-0.30;99.90;;;;;;5112730;27;20002;-72
2021/12/23 07:01:30;;;;;;;;;;;-0.20;99.90;;;;;;5111588;27;19919;-74
2021/12/23 07:04:06;;;;;;;;;;;-0.20;99.90;;;;;;5115146;27;19938;-74
2021/12/23 07:06:34;;;;;;;;;;;-0.20;99.90;;;;;;5116123;27;19915;-74
2021/12/23 07:09:02;;;;;;;;;;;-0.20;99.90;;;;;;5112401;27;19979;-73
2021/12/23 07:11:27;;;;;;;;;;;-0.20;99.90;;;;;;5110677;27;20427;-73
2021/12/23 07:13:53;;;;;;;;;;;-0.20;99.90;;;;;;5113953;27;19915;-73
2021/12/23 07:16:18;;;;;;;;;;;-0.20;99.90;;;;;;5115505;27;20251;-73
2021/12/23 07:18:44;;;;;;;;;;;-0.20;99.90;;;;;;5112772;27;19926;-73
2021/12/23 07:21:09;;;;;;;;;;;-0.20;99.90;;;;;;5115183;27;20358;-73
2021/12/23 07:23:35;;;;;;;;;;;-0.20;99.90;;;;;;5115623;27;20282;-73
2021/12/23 07:26:00;;;;;;;;;;;-0.20;99.90;;;;;;5115955;27;19919;-73
2021/12/23 07:28:25;;;;;;;;;;;-0.10;99.90;;;;;;5114117;27;19954;-72
2021/12/23 07:30:51;;;;;;;;;;;-0.10;99.90;;;;;;5115249;27;19915;-72
2021/12/23 07:33:16;;;;;;;;;;;-0.10;99.90;;;;;;5098170;27;19915;-71
2021/12/23 07:35:42;;;;;;;;;;;-0.20;99.90;;;;;;5115903;27;19956;-71
2021/12/23 07:38:07;;;;;;;;;;;-0.10;99.90;;;;;;5114815;27;19932;-71
2021/12/23 07:40:33;;;;;;;;;;;-0.20;99.90;;;;;;5115308;27;19915;-72
2021/12/23 07:43:09;;;;;;;;;;;-0.10;99.90;;;;;;5114711;27;19930;-70
2021/12/23 07:45:36;;;;;;;;;;;-0.10;99.90;;;;;;5123888;27;20414;-71
2021/12/23 07:48:01;;;;;;;;;;;-0.10;99.90;;;;;;5112533;27;19915;-70
2021/12/23 07:50:26;;;;;;;;;;;-0.10;99.90;;;;;;5114405;27;19915;-71
2021/12/23 07:52:52;;;;;;;;;;;-0.10;99.90;;;;;;5115179;27;19915;-72
2021/12/23 07:55:18;;;;;;;;;;;-0.10;99.90;;;;;;5114643;27;19939;-70
2021/12/23 07:57:43;;;;;;;;;;;-0.10;99.90;;;;;;5114186;27;20281;-70
2021/12/23 08:00:10;;;;;;;;;;;0.00;99.90;;;;;;5113976;27;19922;-70
2021/12/23 08:02:35;;;;;;;;;;;-0.10;99.90;;;;;;5113054;27;20258;-70
2021/12/23 08:05:01;;;;;;;;;;;0.00;99.90;;;;;;5101542;27;19976;-72
2021/12/23 08:07:26;;;;;;;;;;;0.00;99.90;;;;;;5113300;27;19915;-71
2021/12/23 08:09:52;;;;;;;;;;;-0.10;99.90;;;;;;5097942;27;19927;-70
2021/12/23 08:12:17;;;;;;;;;;;0.00;99.90;;;;;;5114546;27;20268;-70
2021/12/23 08:14:43;;;;;;;;;;;0.00;99.90;;;;;;5090367;27;19919;-72
2021/12/23 08:17:08;;;;;;;;;;;0.00;99.90;;;;;;5116143;27;19925;-70
2021/12/23 08:19:34;;;;;;;;;;;0.00;99.90;;;;;;5115799;27;19927;-73
2021/12/23 08:21:59;;;;;;;;;;;0.00;99.90;;;;;;5113588;27;19922;-71
2021/12/23 08:24:25;;;;;;;;;;;0.00;99.90;;;;;;5116314;27;19916;-71
2021/12/23 08:26:52;;;;;;;;;;;0.00;99.90;;;;;;5117287;27;19916;-70
2021/12/23 08:29:19;;;;;;;;;;;0.00;99.90;;;;;;5105811;28;19916;-71
2021/12/23 08:31:47;;;;;;;;;;;0.00;99.90;;;;;;5097078;27;19923;-71
2021/12/23 08:34:12;;;;;;;;;;;0.00;99.90;;;;;;5110681;27;19961;-74
2021/12/23 08:36:38;;;;;;;;;;;0.00;99.90;;;;;;5104994;27;19920;-74
2021/12/23 08:39:03;;;;;;;;;;;0.00;99.90;;;;;;5096221;27;19930;-69
2021/12/23 08:41:29;;;;;;;;;;;0.00;99.90;;;;;;5098831;27;19916;-69
2021/12/23 08:43:54;;;;;;;;;;;0.00;99.90;;;;;;5098185;27;19940;-73
2021/12/23 08:46:20;;;;;;;;;;;0.10;99.90;;;;;;5114648;27;19964;-72
2021/12/23 08:48:46;;;;;;;;;;;0.00;99.90;;;;;;5113922;27;19923;-73
2021/12/23 08:51:11;;;;;;;;;;;0.10;99.90;;;;;;5115573;27;19916;-73
2021/12/23 08:53:37;;;;;;;;;;;0.10;99.90;;;;;;5116262;27;19919;-73
2021/12/23 08:56:08;;;;;;;;;;;0.10;99.90;;;;;;5114021;27;19919;-72
2021/12/23 08:58:34;;;;;;;;;;;0.10;99.90;;;;;;5115285;27;19920;-71
2021/12/23 09:01:00;;;;;;;;;;;0.10;99.90;;;;;;5116182;27;19915;-73
2021/12/23 09:03:26;;;;;;;;;;;0.10;99.90;;;;;;5116787;27;19922;-73
2021/12/23 09:05:51;;;;;;;;;;;0.10;99.90;;;;;;5116764;27;20361;-71
2021/12/23 09:08:17;;;;;;;;;;;0.20;99.90;;;;;;5116207;27;20019;-73
2021/12/23 09:10:42;;;;;;;;;;;0.20;99.90;;;;;;5116435;27;19964;-72
2021/12/23 09:13:08;;;;;;;;;;;0.20;99.90;;;;;;5116317;27;20413;-73
2021/12/23 09:15:39;;;;;;;;;;;0.20;99.90;;;;;;5116557;27;19915;-73
2021/12/23 09:18:05;;;;;;;;;;;0.30;99.90;;;;;;5098669;28;19920;-73
2021/12/23 09:20:30;;;;;;;;;;;0.30;99.90;;;;;;5107972;28;19920;-75
2021/12/23 09:22:56;;;;;;;;;;;0.30;99.90;;;;;;5111925;28;19919;-75
2021/12/23 09:25:28;;;;;;;;;;;0.30;99.90;;;;;;5116137;27;19915;-75
2021/12/23 09:28:01;;;;;;;;;;;0.30;99.90;;;;;;5109082;28;19915;-74
2021/12/23 09:33:12;;;;;;;;;;;0.40;99.90;;;;;;5114405;28;20443;-74
2021/12/23 09:35:38;;;;;;;;;;;0.40;99.90;;;;;;5114363;28;19938;-74
2021/12/23 09:38:04;;;;;;;;;;;0.40;99.90;;;;;;5097698;28;19923;-77
2021/12/23 09:40:32;;;;;;;;;;;0.40;99.90;;;;;;5114305;28;20006;-77
2021/12/23 09:43:01;;;;;;;;;;;0.40;99.90;;;;;;5100843;27;20373;-78
2021/12/23 09:45:27;;;;;;;;;;;0.50;99.90;;;;;;5118931;27;20354;-75
2021/12/23 09:47:53;;;;;;;;;;;0.50;99.90;;;;;;5119270;27;19923;-76
2021/12/23 09:50:20;;;;;;;;;;;0.50;99.90;;;;;;5116755;27;20345;-75
2021/12/23 09:52:47;;;;;;;;;;;0.50;99.90;;;;;;5117842;27;19970;-74
2021/12/23 09:55:14;;;;;;;;;;;0.50;99.90;;;;;;5100209;27;19915;-76
2021/12/23 09:57:39;;;;;;;;;;;0.50;99.90;;;;;;5117594;27;19927;-77
2021/12/23 10:00:06;;;;;;;;;;;0.50;99.90;;;;;;5116435;27;19916;-79
2021/12/23 10:02:31;;;;;;;;;;;0.50;99.90;;;;;;5118281;27;20345;-74
2021/12/23 10:04:57;;;;;;;;;;;0.60;99.90;;;;;;5110658;27;19926;-80
2021/12/23 10:07:22;;;;;;;;;;;0.60;99.90;;;;;;5115180;27;19922;-78
2021/12/23 10:10:08;;;;;;;;;;;0.60;99.90;;;;;;5112997;27;19925;-79
2021/12/23 10:31:59;;;;;;;;;;;0.70;99.90;;;;;;5115895;27;20010;-73
2021/12/23 10:37:23;;;;;;;;;;;0.70;99.90;;;;;;5115770;27;19919;-72
2021/12/23 10:40:04;;;;;;;;;;;0.70;99.90;;;;;;5113274;27;21821;-70
2021/12/23 10:42:30;;;;;;;;;;;0.70;99.90;;;;;;5110501;27;20427;-73
2021/12/23 10:45:08;;;;;;;;;;;0.70;99.90;;;;;;5106792;27;20297;-72
2021/12/23 10:50:18;;;;;;;;;;;0.80;99.90;;;;;;5102095;27;19915;-73
2021/12/23 10:52:47;;;;;;;;;;;0.80;99.90;;;;;;5115268;27;19919;-72
2021/12/23 10:58:02;;;;;;;;;;;0.80;99.90;;;;;;5113818;27;19930;-73
2021/12/23 11:00:32;;;;;;;;;;;0.80;99.90;;;;;;5104850;27;19966;-74
2021/12/23 11:02:59;;;;;;;;;;;0.90;99.90;;;;;;5113361;27;20340;-71
2021/12/23 11:05:29;;;;;;;;;;;0.90;99.90;;;;;;5081471;27;19927;-72
2021/12/23 11:08:37;;;;;;;;;;;0.90;99.90;;;;;;5113274;27;19926;-72
2021/12/23 11:38:18;;;;;;;;;;;1.00;99.90;;;;;;5114762;27;19926;-74
2021/12/23 11:43:32;;;;;;;;;;;1.00;99.90;;;;;;5114348;27;19962;-71
2021/12/23 11:45:59;;;;;;;;;;;1.00;99.90;;;;;;5095567;28;19922;-71
2021/12/23 11:48:25;;;;;;;;;;;1.00;99.90;;;;;;5080089;27;20273;-68
2021/12/23 11:51:07;;;;;;;;;;;1.00;99.90;;;;;;5112932;27;19923;-70
2021/12/23 11:53:34;;;;;;;;;;;1.00;99.90;;;;;;5114398;27;19915;-70
2021/12/23 11:56:00;;;;;;;;;;;1.00;99.90;;;;;;5115447;27;19959;-71
2021/12/23 11:58:26;;;;;;;;;;;1.00;99.90;;;;;;5115113;27;19923;-73
2021/12/23 12:01:03;;;;;;;;;;;1.00;99.90;;;;;;5114401;27;20357;-70
2021/12/23 12:03:28;;;;;;;;;;;1.00;99.90;;;;;;5114770;27;19915;-76
2021/12/23 12:06:11;;;;;;;;;;;1.00;99.90;;;;;;5103286;27;20316;-71
2021/12/23 12:08:37;;;;;;;;;;;1.00;99.90;;;;;;5110647;28;19916;-71
2021/12/23 12:11:16;;;;;;;;;;;1.00;99.90;;;;;;5095329;27;19919;-70
2021/12/23 12:13:41;;;;;;;;;;;1.00;99.90;;;;;;5112702;27;20015;-74
2021/12/23 12:16:25;;;;;;;;;;;1.00;99.90;;;;;;5112774;27;20002;-71
2021/12/23 12:18:51;;;;;;;;;;;1.00;99.90;;;;;;5111231;27;19927;-70
2021/12/23 12:21:21;;;;;;;;;;;1.00;99.90;;;;;;5112246;27;19931;-73
2021/12/23 12:23:47;;;;;;;;;;;1.00;99.90;;;;;;5113891;27;19941;-76
2021/12/23 12:26:22;;;;;;;;;;;1.00;99.90;;;;;;5113996;27;19915;-73
2021/12/23 12:28:48;;;;;;;;;;;1.10;99.90;;;;;;5111913;27;19922;-72
2021/12/23 12:31:16;;;;;;;;;;;1.10;99.90;;;;;;5111683;27;19915;-72
2021/12/23 12:33:43;;;;;;;;;;;1.10;99.90;;;;;;5114474;27;19919;-71
2021/12/23 12:36:13;;;;;;;;;;;1.10;99.90;;;;;;5108226;27;19962;-72
2021/12/23 12:38:41;;;;;;;;;;;1.10;99.90;;;;;;5113665;27;20358;-69
2021/12/23 12:41:16;;;;;;;;;;;1.10;99.90;;;;;;5113979;27;19958;-71
2021/12/23 12:46:30;;;;;;;;;;;1.10;99.90;;;;;;5114820;27;19915;-72
2021/12/23 12:48:59;;;;;;;;;;;1.10;99.90;;;;;;5112563;27;19915;-72
2021/12/23 12:51:32;;;;;;;;;;;1.00;99.90;;;;;;5095414;28;19920;-74
2021/12/23 12:54:03;;;;;;;;;;;1.10;99.90;;;;;;5099496;27;20357;-77
2021/12/23 12:56:29;;;;;;;;;;;1.10;99.90;;;;;;5114687;27;19960;-72
2021/12/23 12:58:55;;;;;;;;;;;1.10;99.90;;;;;;5097983;27;20370;-73
2021/12/23 13:01:34;;;;;;;;;;;1.10;99.90;;;;;;5115006;27;19923;-71
2021/12/23 13:04:01;;;;;;;;;;;1.10;99.90;;;;;;5110942;27;19916;-73
2021/12/23 13:06:36;;;;;;;;;;;1.00;99.90;;;;;;5094910;28;20010;-73
2021/12/23 13:09:03;;;;;;;;;;;1.00;99.90;;;;;;5094795;28;19916;-72
2021/12/23 13:11:32;;;;;;;;;;;1.00;99.90;;;;;;5094992;28;19915;-74
2021/12/23 13:14:01;;;;;;;;;;;1.10;99.90;;;;;;5096067;28;19916;-75
2021/12/23 13:16:27;;;;;;;;;;;1.10;99.90;;;;;;5093335;28;20386;-74
2021/12/23 13:19:12;;;;;;;;;;;1.10;99.90;;;;;;5096563;27;19923;-73
2021/12/23 13:21:42;;;;;;;;;;;1.10;99.90;;;;;;5115120;28;19915;-73
2021/12/23 13:24:09;;;;;;;;;;;1.10;99.90;;;;;;5115722;28;20414;-73
2021/12/23 13:26:35;;;;;;;;;;;1.10;99.90;;;;;;5115872;28;19915;-69
2021/12/23 13:29:03;;;;;;;;;;;1.10;99.90;;;;;;5115999;28;19919;-73
2021/12/23 13:31:29;;;;;;;;;;;1.10;99.90;;;;;;5099763;28;19919;-72
2021/12/23 13:33:57;;;;;;;;;;;1.10;99.90;;;;;;5116155;28;19915;-72
2021/12/23 13:36:23;;;;;;;;;;;1.10;99.90;;;;;;5116523;28;20007;-73
2021/12/23 13:38:50;;;;;;;;;;;1.20;99.90;;;;;;5116290;28;19972;-70
2021/12/23 13:41:36;;;;;;;;;;;1.20;99.90;;;;;;5114817;28;19958;-71
2021/12/23 13:44:14;;;;;;;;;;;1.20;99.90;;;;;;5078602;28;19922;-71
2021/12/23 13:46:40;;;;;;;;;;;1.20;99.90;;;;;;5096246;28;19916;-72
2021/12/23 13:49:07;;;;;;;;;;;1.20;99.90;;;;;;5095944;28;19916;-70
2021/12/23 13:51:34;;;;;;;;;;;1.20;99.90;;;;;;5096214;28;19915;-68
2021/12/23 13:54:04;;;;;;;;;;;1.30;99.90;;;;;;5095990;28;19961;-71
2021/12/23 13:59:54;;;;;;;;;;;1.30;99.90;;;;;;5133302;27;19922;-69
2021/12/23 14:02:21;;;;;;;;;;;1.40;99.90;;;;;;5116382;28;19915;-69
2021/12/23 14:04:48;;;;;;;;;;;1.40;99.90;;;;;;5115746;28;19915;-67
2021/12/23 14:07:15;;;;;;;;;;;1.40;99.90;;;;;;5116299;28;19915;-69
2021/12/23 14:09:51;;;;;;;;;;;1.40;99.90;;;;;;5116098;28;19919;-69
2021/12/23 14:12:21;;;;;;;;;;;1.40;99.90;;;;;;5116403;28;20376;-68
2021/12/23 14:14:49;;;;;;;;;;;1.40;99.90;;;;;;5116480;28;19919;-68
2021/12/23 14:17:22;;;;;;;;;;;1.40;99.90;;;;;;5115923;28;19919;-69
2021/12/23 14:23:11;;;;;;;;;;;1.40;99.90;;;;;;5099086;28;19923;-69
2021/12/23 14:25:27;;;;;;;;;;;1.40;99.90;;;;;;5116642;28;19929;-69
2021/12/23 14:27:52;;;;;;;;;;;1.40;99.90;;;;;;5117636;27;19962;-68
2021/12/23 14:30:17;;;;;;;;;;;1.40;99.90;;;;;;5119094;27;19915;-69
2021/12/23 14:32:43;;;;;;;;;;;1.40;99.90;;;;;;5119724;27;19916;-69
2021/12/23 14:35:25;;;;;;;;;;;1.40;99.90;;;;;;5119479;27;19922;-69
2021/12/23 14:37:58;;;;;;;;;;;1.40;99.90;;;;;;5118449;27;19938;-68
2021/12/23 14:40:23;;;;;;;;;;;1.40;99.90;;;;;;5119495;27;20353;-67
2021/12/23 14:42:56;;;;;;;;;;;1.40;99.90;;;;;;5119534;27;19919;-69
2021/12/23 14:45:49;;;;;;;;;;;1.40;99.90;;;;;;5116934;27;19919;-67
2021/12/23 14:48:18;;;;;;;;;;;1.40;99.90;;;;;;5098845;28;19916;-69
2021/12/23 14:50:52;;;;;;;;;;;1.40;99.90;;;;;;5098574;28;19916;-66
2021/12/23 14:53:18;;;;;;;;;;;1.40;99.90;;;;;;5108587;27;19922;-69
2021/12/23 14:55:52;;;;;;;;;;;1.40;99.90;;;;;;5119309;27;19957;-69
2021/12/23 14:58:17;;;;;;;;;;;1.40;99.90;;;;;;5119033;27;19927;-70
2021/12/23 15:00:44;;;;;;;;;;;1.40;99.90;;;;;;5119094;27;19915;-69
2021/12/23 15:03:10;;;;;;;;;;;1.40;99.90;;;;;;5119045;27;19915;-68
2021/12/23 15:05:37;;;;;;;;;;;1.40;99.90;;;;;;5118739;27;19915;-69
2021/12/23 15:08:03;;;;;;;;;;;1.40;99.90;;;;;;5119305;27;19919;-68
2021/12/23 15:10:30;;;;;;;;;;;1.40;99.90;;;;;;5119059;27;20380;-69
2021/12/23 15:12:57;;;;;;;;;;;1.40;99.90;;;;;;5119057;27;19922;-69
2021/12/23 15:15:28;;;;;;;;;;;1.50;99.90;;;;;;5118950;27;19915;-67
2021/12/23 15:17:59;;;;;;;;;;;1.40;99.90;;;;;;5118791;27;19919;-68
2021/12/23 15:23:53;;;;;;;;;;;1.50;99.90;;;;;;5136494;27;19980;-68
2021/12/23 15:26:26;;;;;;;;;;;1.50;99.90;;;;;;5118142;27;19915;-72
2021/12/23 15:29:21;;;;;;;;;;;1.50;99.90;;;;;;5113142;27;19915;-70
2021/12/23 15:31:52;;;;;;;;;;;1.50;99.90;;;;;;5100542;27;20315;-69
2021/12/23 15:34:18;;;;;;;;;;;1.50;99.90;;;;;;5098669;28;19915;-69
2021/12/23 15:36:44;;;;;;;;;;;1.50;99.90;;;;;;5111702;27;20281;-69
2021/12/23 15:39:13;;;;;;;;;;;1.50;99.90;;;;;;5117272;27;19920;-69
2021/12/23 15:44:48;;;;;;;;;;;1.50;99.90;;;;;;5118297;27;19984;-70
2021/12/23 15:47:15;;;;;;;;;;;1.50;99.90;;;;;;5117934;27;19964;-68